sensor_id;sensor_type;location;lat;lon;timestamp;P1;durP1;ratioP1;P2;durP2;ratioP2
12852;SDS011;6495;51.808;7.478;2023-08-24T00:01:04;4.78;;;3.88;;
12852;SDS011;6495;51.808;7.478;2023-08-24T00:03:34;5.82;;;4.00;;
12852;SDS011;6495;51.808;7.478;2023-08-24T00:06:05;4.88;;;3.97;;
12852;SDS011;6495;51.808;7.478;2023-08-24T00:08:33;5.15;;;3.80;;
12852;SDS011;6495;51.808;7.478;2023-08-24T00:11:02;7.07;;;4.20;;
12852;SDS011;6495;51.808;7.478;2023-08-24T00:13:30;6.68;;;4.15;;
12852;SDS011;6495;51.808;7.478;2023-08-24T00:16:02;5.80;;;4.20;;
12852;SDS011;6495;51.808;7.478;2023-08-24T00:18:30;4.53;;;3.88;;
12852;SDS011;6495;51.808;7.478;2023-08-24T00:21:00;5.25;;;3.78;;
12852;SDS011;6495;51.808;7.478;2023-08-24T00:23:29;7.32;;;3.83;;
12852;SDS011;6495;51.808;7.478;2023-08-24T00:25:57;6.22;;;3.90;;
12852;SDS011;6495;51.808;7.478;2023-08-24T00:28:25;7.15;;;4.22;;
12852;SDS011;6495;51.808;7.478;2023-08-24T00:30:56;4.95;;;3.90;;
12852;SDS011;6495;51.808;7.478;2023-08-24T00:33:25;6.68;;;4.03;;
12852;SDS011;6495;51.808;7.478;2023-08-24T00:35:58;5.88;;;4.20;;
12852;SDS011;6495;51.808;7.478;2023-08-24T00:38:29;5.47;;;4.22;;
12852;SDS011;6495;51.808;7.478;2023-08-24T00:40:57;5.13;;;3.90;;
12852;SDS011;6495;51.808;7.478;2023-08-24T00:43:38;6.60;;;3.95;;
12852;SDS011;6495;51.808;7.478;2023-08-24T00:46:30;8.82;;;3.80;;
12852;SDS011;6495;51.808;7.478;2023-08-24T00:48:59;4.35;;;3.92;;
12852;SDS011;6495;51.808;7.478;2023-08-24T00:51:29;4.47;;;3.72;;
12852;SDS011;6495;51.808;7.478;2023-08-24T00:53:57;8.80;;;4.47;;
12852;SDS011;6495;51.808;7.478;2023-08-24T00:56:26;7.18;;;4.20;;
12852;SDS011;6495;51.808;7.478;2023-08-24T00:58:57;10.05;;;4.57;;
12852;SDS011;6495;51.808;7.478;2023-08-24T01:01:26;8.57;;;4.82;;
12852;SDS011;6495;51.808;7.478;2023-08-24T01:03:55;6.78;;;4.57;;
12852;SDS011;6495;51.808;7.478;2023-08-24T01:06:23;8.25;;;4.95;;
12852;SDS011;6495;51.808;7.478;2023-08-24T01:08:53;7.72;;;4.32;;
12852;SDS011;6495;51.808;7.478;2023-08-24T01:11:26;6.03;;;4.57;;
12852;SDS011;6495;51.808;7.478;2023-08-24T01:14:09;5.50;;;4.22;;
12852;SDS011;6495;51.808;7.478;2023-08-24T01:16:50;6.85;;;4.45;;
12852;SDS011;6495;51.808;7.478;2023-08-24T01:19:31;6.38;;;4.15;;
12852;SDS011;6495;51.808;7.478;2023-08-24T01:22:07;8.40;;;4.55;;
12852;SDS011;6495;51.808;7.478;2023-08-24T01:25:04;6.45;;;3.80;;
12852;SDS011;6495;51.808;7.478;2023-08-24T01:27:40;5.22;;;4.35;;
12852;SDS011;6495;51.808;7.478;2023-08-24T01:30:10;7.50;;;4.60;;
12852;SDS011;6495;51.808;7.478;2023-08-24T01:32:39;5.57;;;4.13;;
12852;SDS011;6495;51.808;7.478;2023-08-24T01:35:09;10.35;;;4.75;;
12852;SDS011;6495;51.808;7.478;2023-08-24T01:37:38;7.40;;;3.92;;
12852;SDS011;6495;51.808;7.478;2023-08-24T01:40:07;5.72;;;4.25;;
12852;SDS011;6495;51.808;7.478;2023-08-24T01:42:51;7.95;;;4.45;;
12852;SDS011;6495;51.808;7.478;2023-08-24T01:45:27;5.85;;;4.15;;
12852;SDS011;6495;51.808;7.478;2023-08-24T01:47:59;5.95;;;4.20;;
12852;SDS011;6495;51.808;7.478;2023-08-24T01:50:33;8.38;;;4.45;;
12852;SDS011;6495;51.808;7.478;2023-08-24T01:53:08;8.70;;;4.40;;
12852;SDS011;6495;51.808;7.478;2023-08-24T01:55:36;9.50;;;4.30;;
12852;SDS011;6495;51.808;7.478;2023-08-24T01:58:07;6.43;;;4.22;;
12852;SDS011;6495;51.808;7.478;2023-08-24T02:00:36;8.40;;;4.65;;
12852;SDS011;6495;51.808;7.478;2023-08-24T02:03:05;7.28;;;5.03;;
12852;SDS011;6495;51.808;7.478;2023-08-24T02:05:33;6.15;;;4.57;;
12852;SDS011;6495;51.808;7.478;2023-08-24T02:08:02;4.95;;;4.10;;
12852;SDS011;6495;51.808;7.478;2023-08-24T02:10:30;7.13;;;4.30;;
12852;SDS011;6495;51.808;7.478;2023-08-24T02:12:59;4.95;;;4.30;;
12852;SDS011;6495;51.808;7.478;2023-08-24T02:15:28;5.35;;;3.80;;
12852;SDS011;6495;51.808;7.478;2023-08-24T02:17:57;5.57;;;4.07;;
12852;SDS011;6495;51.808;7.478;2023-08-24T02:20:25;5.20;;;4.22;;
12852;SDS011;6495;51.808;7.478;2023-08-24T02:22:53;4.00;;;3.60;;
12852;SDS011;6495;51.808;7.478;2023-08-24T02:25:21;4.68;;;3.92;;
12852;SDS011;6495;51.808;7.478;2023-08-24T02:27:50;4.50;;;4.10;;
12852;SDS011;6495;51.808;7.478;2023-08-24T02:30:19;6.80;;;4.70;;
12852;SDS011;6495;51.808;7.478;2023-08-24T02:32:49;5.53;;;4.43;;
12852;SDS011;6495;51.808;7.478;2023-08-24T02:35:18;6.25;;;4.35;;
12852;SDS011;6495;51.808;7.478;2023-08-24T02:37:46;7.28;;;4.95;;
12852;SDS011;6495;51.808;7.478;2023-08-24T02:40:16;9.32;;;4.55;;
12852;SDS011;6495;51.808;7.478;2023-08-24T02:42:44;5.10;;;4.03;;
12852;SDS011;6495;51.808;7.478;2023-08-24T02:45:12;7.22;;;4.22;;
12852;SDS011;6495;51.808;7.478;2023-08-24T02:47:41;8.88;;;4.35;;
12852;SDS011;6495;51.808;7.478;2023-08-24T02:50:10;8.05;;;5.05;;
12852;SDS011;6495;51.808;7.478;2023-08-24T02:52:39;5.70;;;4.35;;
12852;SDS011;6495;51.808;7.478;2023-08-24T02:55:07;6.70;;;4.55;;
12852;SDS011;6495;51.808;7.478;2023-08-24T02:57:36;5.05;;;4.43;;
12852;SDS011;6495;51.808;7.478;2023-08-24T03:00:05;9.30;;;4.72;;
12852;SDS011;6495;51.808;7.478;2023-08-24T03:02:36;5.85;;;4.43;;
12852;SDS011;6495;51.808;7.478;2023-08-24T03:05:04;6.78;;;4.40;;
12852;SDS011;6495;51.808;7.478;2023-08-24T03:07:38;5.90;;;4.40;;
12852;SDS011;6495;51.808;7.478;2023-08-24T03:10:08;4.85;;;4.20;;
12852;SDS011;6495;51.808;7.478;2023-08-24T03:12:40;7.40;;;5.03;;
12852;SDS011;6495;51.808;7.478;2023-08-24T03:15:08;6.03;;;4.90;;
12852;SDS011;6495;51.808;7.478;2023-08-24T03:17:39;6.20;;;4.50;;
12852;SDS011;6495;51.808;7.478;2023-08-24T03:20:09;6.43;;;4.57;;
12852;SDS011;6495;51.808;7.478;2023-08-24T03:22:39;6.97;;;4.63;;
12852;SDS011;6495;51.808;7.478;2023-08-24T03:25:11;7.60;;;4.90;;
12852;SDS011;6495;51.808;7.478;2023-08-24T03:27:47;10.90;;;5.57;;
12852;SDS011;6495;51.808;7.478;2023-08-24T03:30:17;9.25;;;4.43;;
12852;SDS011;6495;51.808;7.478;2023-08-24T03:32:45;7.40;;;4.90;;
12852;SDS011;6495;51.808;7.478;2023-08-24T03:35:13;8.02;;;4.97;;
12852;SDS011;6495;51.808;7.478;2023-08-24T03:37:43;5.78;;;4.57;;
12852;SDS011;6495;51.808;7.478;2023-08-24T03:40:12;12.85;;;4.60;;
12852;SDS011;6495;51.808;7.478;2023-08-24T03:42:41;6.70;;;4.45;;
12852;SDS011;6495;51.808;7.478;2023-08-24T03:45:09;5.65;;;4.95;;
12852;SDS011;6495;51.808;7.478;2023-08-24T03:47:37;5.90;;;4.68;;
12852;SDS011;6495;51.808;7.478;2023-08-24T03:50:06;5.72;;;4.22;;
12852;SDS011;6495;51.808;7.478;2023-08-24T03:52:35;7.35;;;5.10;;
12852;SDS011;6495;51.808;7.478;2023-08-24T03:55:07;7.38;;;5.50;;
12852;SDS011;6495;51.808;7.478;2023-08-24T03:57:36;7.57;;;4.63;;
12852;SDS011;6495;51.808;7.478;2023-08-24T04:00:08;8.68;;;4.97;;
12852;SDS011;6495;51.808;7.478;2023-08-24T04:02:41;4.90;;;4.43;;
12852;SDS011;6495;51.808;7.478;2023-08-24T04:05:16;6.60;;;5.05;;
12852;SDS011;6495;51.808;7.478;2023-08-24T04:07:47;7.32;;;5.10;;
12852;SDS011;6495;51.808;7.478;2023-08-24T04:10:17;6.53;;;4.78;;
12852;SDS011;6495;51.808;7.478;2023-08-24T04:12:45;5.88;;;4.97;;
12852;SDS011;6495;51.808;7.478;2023-08-24T04:15:13;8.05;;;4.70;;
12852;SDS011;6495;51.808;7.478;2023-08-24T04:17:41;6.20;;;5.10;;
12852;SDS011;6495;51.808;7.478;2023-08-24T04:20:11;5.70;;;4.85;;
12852;SDS011;6495;51.808;7.478;2023-08-24T04:22:41;5.75;;;4.88;;
12852;SDS011;6495;51.808;7.478;2023-08-24T04:25:10;6.53;;;5.05;;
12852;SDS011;6495;51.808;7.478;2023-08-24T04:27:40;5.53;;;4.78;;
12852;SDS011;6495;51.808;7.478;2023-08-24T04:30:08;6.65;;;4.95;;
12852;SDS011;6495;51.808;7.478;2023-08-24T04:32:38;7.13;;;5.32;;
12852;SDS011;6495;51.808;7.478;2023-08-24T04:35:07;6.82;;;5.15;;
12852;SDS011;6495;51.808;7.478;2023-08-24T04:37:36;6.97;;;5.30;;
12852;SDS011;6495;51.808;7.478;2023-08-24T04:40:06;9.48;;;5.15;;
12852;SDS011;6495;51.808;7.478;2023-08-24T04:42:35;9.45;;;6.38;;
12852;SDS011;6495;51.808;7.478;2023-08-24T04:45:05;7.90;;;5.28;;
12852;SDS011;6495;51.808;7.478;2023-08-24T04:47:36;9.20;;;5.53;;
12852;SDS011;6495;51.808;7.478;2023-08-24T04:50:04;9.25;;;6.63;;
12852;SDS011;6495;51.808;7.478;2023-08-24T04:52:34;10.40;;;6.45;;
12852;SDS011;6495;51.808;7.478;2023-08-24T04:55:03;9.88;;;6.10;;
12852;SDS011;6495;51.808;7.478;2023-08-24T04:57:32;7.50;;;5.53;;
12852;SDS011;6495;51.808;7.478;2023-08-24T05:00:00;7.35;;;6.05;;
12852;SDS011;6495;51.808;7.478;2023-08-24T05:02:33;7.65;;;6.40;;
12852;SDS011;6495;51.808;7.478;2023-08-24T05:05:01;10.70;;;6.70;;
12852;SDS011;6495;51.808;7.478;2023-08-24T05:07:31;9.57;;;6.55;;
12852;SDS011;6495;51.808;7.478;2023-08-24T05:10:00;7.90;;;6.15;;
12852;SDS011;6495;51.808;7.478;2023-08-24T05:12:29;7.45;;;6.35;;
12852;SDS011;6495;51.808;7.478;2023-08-24T05:15:00;10.35;;;7.10;;
12852;SDS011;6495;51.808;7.478;2023-08-24T05:17:28;8.68;;;6.65;;
12852;SDS011;6495;51.808;7.478;2023-08-24T05:19:59;10.00;;;7.50;;
12852;SDS011;6495;51.808;7.478;2023-08-24T05:22:28;10.38;;;7.40;;
12852;SDS011;6495;51.808;7.478;2023-08-24T05:24:56;8.23;;;6.80;;
12852;SDS011;6495;51.808;7.478;2023-08-24T05:27:25;8.25;;;6.95;;
12852;SDS011;6495;51.808;7.478;2023-08-24T05:29:53;12.55;;;8.23;;
12852;SDS011;6495;51.808;7.478;2023-08-24T05:32:22;10.98;;;8.40;;
12852;SDS011;6495;51.808;7.478;2023-08-24T05:34:50;10.30;;;8.43;;
12852;SDS011;6495;51.808;7.478;2023-08-24T05:37:20;10.30;;;8.60;;
12852;SDS011;6495;51.808;7.478;2023-08-24T05:39:48;10.20;;;8.75;;
12852;SDS011;6495;51.808;7.478;2023-08-24T05:42:16;11.25;;;8.40;;
12852;SDS011;6495;51.808;7.478;2023-08-24T05:44:45;13.18;;;8.98;;
12852;SDS011;6495;51.808;7.478;2023-08-24T05:47:16;12.88;;;9.63;;
12852;SDS011;6495;51.808;7.478;2023-08-24T05:49:44;13.02;;;9.43;;
12852;SDS011;6495;51.808;7.478;2023-08-24T05:52:13;12.80;;;9.35;;
12852;SDS011;6495;51.808;7.478;2023-08-24T05:54:45;11.60;;;9.30;;
12852;SDS011;6495;51.808;7.478;2023-08-24T05:57:13;10.95;;;9.25;;
12852;SDS011;6495;51.808;7.478;2023-08-24T05:59:45;11.20;;;9.98;;
12852;SDS011;6495;51.808;7.478;2023-08-24T06:02:14;15.15;;;9.60;;
12852;SDS011;6495;51.808;7.478;2023-08-24T06:04:42;13.23;;;9.70;;
12852;SDS011;6495;51.808;7.478;2023-08-24T06:07:11;11.30;;;9.50;;
12852;SDS011;6495;51.808;7.478;2023-08-24T06:09:39;12.23;;;9.82;;
12852;SDS011;6495;51.808;7.478;2023-08-24T06:12:11;14.00;;;9.57;;
12852;SDS011;6495;51.808;7.478;2023-08-24T06:14:42;12.98;;;10.45;;
12852;SDS011;6495;51.808;7.478;2023-08-24T06:17:10;16.10;;;10.88;;
12852;SDS011;6495;51.808;7.478;2023-08-24T06:19:40;13.65;;;10.57;;
12852;SDS011;6495;51.808;7.478;2023-08-24T06:22:08;12.60;;;10.02;;
12852;SDS011;6495;51.808;7.478;2023-08-24T06:24:37;14.70;;;10.93;;
12852;SDS011;6495;51.808;7.478;2023-08-24T06:27:05;14.27;;;11.80;;
12852;SDS011;6495;51.808;7.478;2023-08-24T06:29:35;13.32;;;11.90;;
12852;SDS011;6495;51.808;7.478;2023-08-24T06:32:03;16.58;;;12.15;;
12852;SDS011;6495;51.808;7.478;2023-08-24T06:34:31;16.05;;;13.02;;
12852;SDS011;6495;51.808;7.478;2023-08-24T06:37:00;15.23;;;12.98;;
12852;SDS011;6495;51.808;7.478;2023-08-24T06:39:29;22.30;;;14.45;;
12852;SDS011;6495;51.808;7.478;2023-08-24T06:41:57;21.10;;;14.88;;
12852;SDS011;6495;51.808;7.478;2023-08-24T06:44:26;16.50;;;13.40;;
12852;SDS011;6495;51.808;7.478;2023-08-24T06:46:55;22.55;;;15.57;;
12852;SDS011;6495;51.808;7.478;2023-08-24T06:49:24;22.98;;;15.63;;
12852;SDS011;6495;51.808;7.478;2023-08-24T06:51:52;17.98;;;14.23;;
12852;SDS011;6495;51.808;7.478;2023-08-24T06:54:21;18.88;;;13.55;;
12852;SDS011;6495;51.808;7.478;2023-08-24T06:56:52;20.52;;;14.57;;
12852;SDS011;6495;51.808;7.478;2023-08-24T06:59:21;18.92;;;14.25;;
12852;SDS011;6495;51.808;7.478;2023-08-24T07:01:49;17.48;;;13.27;;
12852;SDS011;6495;51.808;7.478;2023-08-24T07:04:20;16.92;;;13.13;;
12852;SDS011;6495;51.808;7.478;2023-08-24T07:06:48;18.25;;;13.65;;
12852;SDS011;6495;51.808;7.478;2023-08-24T07:09:18;18.67;;;13.32;;
12852;SDS011;6495;51.808;7.478;2023-08-24T07:11:47;18.00;;;14.32;;
12852;SDS011;6495;51.808;7.478;2023-08-24T07:14:15;16.08;;;12.95;;
12852;SDS011;6495;51.808;7.478;2023-08-24T07:16:44;16.50;;;13.18;;
12852;SDS011;6495;51.808;7.478;2023-08-24T07:19:13;17.25;;;13.32;;
12852;SDS011;6495;51.808;7.478;2023-08-24T07:21:44;18.83;;;13.95;;
12852;SDS011;6495;51.808;7.478;2023-08-24T07:24:13;17.15;;;13.70;;
12852;SDS011;6495;51.808;7.478;2023-08-24T07:26:41;15.02;;;12.48;;
12852;SDS011;6495;51.808;7.478;2023-08-24T07:29:09;16.08;;;12.32;;
12852;SDS011;6495;51.808;7.478;2023-08-24T07:31:37;14.85;;;12.52;;
12852;SDS011;6495;51.808;7.478;2023-08-24T07:34:09;14.75;;;12.15;;
12852;SDS011;6495;51.808;7.478;2023-08-24T07:36:37;18.95;;;13.45;;
12852;SDS011;6495;51.808;7.478;2023-08-24T07:39:07;15.85;;;12.18;;
12852;SDS011;6495;51.808;7.478;2023-08-24T07:41:36;15.65;;;11.98;;
12852;SDS011;6495;51.808;7.478;2023-08-24T07:44:04;16.52;;;11.73;;
12852;SDS011;6495;51.808;7.478;2023-08-24T07:46:32;13.77;;;11.55;;
12852;SDS011;6495;51.808;7.478;2023-08-24T07:49:01;12.73;;;10.93;;
12852;SDS011;6495;51.808;7.478;2023-08-24T07:51:29;14.57;;;11.20;;
12852;SDS011;6495;51.808;7.478;2023-08-24T07:53:58;14.07;;;10.18;;
12852;SDS011;6495;51.808;7.478;2023-08-24T07:56:27;11.70;;;10.25;;
12852;SDS011;6495;51.808;7.478;2023-08-24T07:58:56;14.85;;;11.68;;
12852;SDS011;6495;51.808;7.478;2023-08-24T08:01:24;12.95;;;11.15;;
12852;SDS011;6495;51.808;7.478;2023-08-24T08:03:52;14.77;;;9.63;;
12852;SDS011;6495;51.808;7.478;2023-08-24T08:06:23;12.18;;;9.35;;
12852;SDS011;6495;51.808;7.478;2023-08-24T08:08:54;13.32;;;9.82;;
12852;SDS011;6495;51.808;7.478;2023-08-24T08:11:24;13.38;;;9.55;;
12852;SDS011;6495;51.808;7.478;2023-08-24T08:13:53;13.13;;;9.00;;
12852;SDS011;6495;51.808;7.478;2023-08-24T08:16:22;12.27;;;10.27;;
12852;SDS011;6495;51.808;7.478;2023-08-24T08:18:53;12.50;;;9.77;;
12852;SDS011;6495;51.808;7.478;2023-08-24T08:21:21;12.85;;;9.40;;
12852;SDS011;6495;51.808;7.478;2023-08-24T08:23:50;11.88;;;8.80;;
12852;SDS011;6495;51.808;7.478;2023-08-24T08:26:18;15.75;;;9.45;;
12852;SDS011;6495;51.808;7.478;2023-08-24T08:28:48;10.48;;;8.27;;
12852;SDS011;6495;51.808;7.478;2023-08-24T08:31:18;13.43;;;9.68;;
12852;SDS011;6495;51.808;7.478;2023-08-24T08:33:48;14.40;;;8.80;;
12852;SDS011;6495;51.808;7.478;2023-08-24T08:36:19;10.82;;;8.20;;
12852;SDS011;6495;51.808;7.478;2023-08-24T08:38:50;8.65;;;7.53;;
12852;SDS011;6495;51.808;7.478;2023-08-24T08:41:22;11.25;;;8.52;;
12852;SDS011;6495;51.808;7.478;2023-08-24T08:43:56;11.38;;;9.32;;
12852;SDS011;6495;51.808;7.478;2023-08-24T08:46:26;11.98;;;8.13;;
12852;SDS011;6495;51.808;7.478;2023-08-24T08:48:55;8.13;;;7.22;;
12852;SDS011;6495;51.808;7.478;2023-08-24T08:51:24;12.20;;;8.77;;
12852;SDS011;6495;51.808;7.478;2023-08-24T08:53:52;8.93;;;7.70;;
12852;SDS011;6495;51.808;7.478;2023-08-24T08:56:21;9.98;;;6.97;;
12852;SDS011;6495;51.808;7.478;2023-08-24T08:58:50;11.57;;;7.00;;
12852;SDS011;6495;51.808;7.478;2023-08-24T09:01:21;10.85;;;6.85;;
12852;SDS011;6495;51.808;7.478;2023-08-24T09:03:53;8.00;;;7.15;;
12852;SDS011;6495;51.808;7.478;2023-08-24T09:06:22;7.93;;;6.40;;
12852;SDS011;6495;51.808;7.478;2023-08-24T09:08:50;14.05;;;8.20;;
12852;SDS011;6495;51.808;7.478;2023-08-24T09:11:21;7.75;;;6.63;;
12852;SDS011;6495;51.808;7.478;2023-08-24T09:13:50;8.40;;;5.47;;
12852;SDS011;6495;51.808;7.478;2023-08-24T09:16:18;10.02;;;5.95;;
12852;SDS011;6495;51.808;7.478;2023-08-24T09:18:47;8.38;;;5.90;;
12852;SDS011;6495;51.808;7.478;2023-08-24T09:21:17;7.88;;;6.47;;
12852;SDS011;6495;51.808;7.478;2023-08-24T09:23:52;10.52;;;7.07;;
12852;SDS011;6495;51.808;7.478;2023-08-24T09:26:29;9.02;;;6.30;;
12852;SDS011;6495;51.808;7.478;2023-08-24T09:28:58;9.93;;;6.53;;
12852;SDS011;6495;51.808;7.478;2023-08-24T09:31:34;9.05;;;6.03;;
12852;SDS011;6495;51.808;7.478;2023-08-24T09:34:04;9.18;;;6.65;;
12852;SDS011;6495;51.808;7.478;2023-08-24T09:36:35;7.03;;;5.03;;
12852;SDS011;6495;51.808;7.478;2023-08-24T09:39:04;6.95;;;4.72;;
12852;SDS011;6495;51.808;7.478;2023-08-24T09:41:36;9.50;;;6.18;;
12852;SDS011;6495;51.808;7.478;2023-08-24T09:44:07;10.60;;;7.03;;
12852;SDS011;6495;51.808;7.478;2023-08-24T09:46:38;8.63;;;4.85;;
12852;SDS011;6495;51.808;7.478;2023-08-24T09:49:10;8.32;;;6.65;;
12852;SDS011;6495;51.808;7.478;2023-08-24T09:51:41;6.63;;;5.93;;
12852;SDS011;6495;51.808;7.478;2023-08-24T09:54:11;9.10;;;6.78;;
12852;SDS011;6495;51.808;7.478;2023-08-24T09:56:40;10.05;;;6.15;;
12852;SDS011;6495;51.808;7.478;2023-08-24T09:59:13;12.35;;;7.05;;
12852;SDS011;6495;51.808;7.478;2023-08-24T10:01:45;10.27;;;7.22;;
12852;SDS011;6495;51.808;7.478;2023-08-24T10:04:17;8.77;;;6.28;;
12852;SDS011;6495;51.808;7.478;2023-08-24T10:06:52;9.15;;;6.20;;
12852;SDS011;6495;51.808;7.478;2023-08-24T10:09:27;10.20;;;6.57;;
12852;SDS011;6495;51.808;7.478;2023-08-24T10:12:05;10.07;;;6.05;;
12852;SDS011;6495;51.808;7.478;2023-08-24T10:14:39;8.68;;;6.53;;
12852;SDS011;6495;51.808;7.478;2023-08-24T10:17:20;6.38;;;5.53;;
12852;SDS011;6495;51.808;7.478;2023-08-24T10:19:50;6.63;;;4.90;;
12852;SDS011;6495;51.808;7.478;2023-08-24T10:22:21;8.52;;;5.65;;
12852;SDS011;6495;51.808;7.478;2023-08-24T10:24:50;7.00;;;5.30;;
12852;SDS011;6495;51.808;7.478;2023-08-24T10:27:21;6.38;;;5.28;;
12852;SDS011;6495;51.808;7.478;2023-08-24T10:29:51;5.38;;;4.55;;
12852;SDS011;6495;51.808;7.478;2023-08-24T10:32:19;5.93;;;4.20;;
12852;SDS011;6495;51.808;7.478;2023-08-24T10:34:49;5.32;;;3.85;;
12852;SDS011;6495;51.808;7.478;2023-08-24T10:37:21;5.10;;;3.80;;
12852;SDS011;6495;51.808;7.478;2023-08-24T10:39:55;10.32;;;4.45;;
12852;SDS011;6495;51.808;7.478;2023-08-24T10:42:23;6.88;;;5.50;;
12852;SDS011;6495;51.808;7.478;2023-08-24T10:44:52;7.68;;;5.43;;
12852;SDS011;6495;51.808;7.478;2023-08-24T10:47:21;7.20;;;5.18;;
12852;SDS011;6495;51.808;7.478;2023-08-24T10:50:01;9.95;;;5.03;;
12852;SDS011;6495;51.808;7.478;2023-08-24T10:52:32;5.70;;;4.53;;
12852;SDS011;6495;51.808;7.478;2023-08-24T10:55:21;9.68;;;6.10;;
12852;SDS011;6495;51.808;7.478;2023-08-24T10:57:55;6.75;;;4.80;;
12852;SDS011;6495;51.808;7.478;2023-08-24T11:00:26;5.18;;;3.55;;
12852;SDS011;6495;51.808;7.478;2023-08-24T11:02:57;7.85;;;4.68;;
12852;SDS011;6495;51.808;7.478;2023-08-24T11:05:28;6.32;;;3.78;;
12852;SDS011;6495;51.808;7.478;2023-08-24T11:08:00;5.28;;;4.32;;
12852;SDS011;6495;51.808;7.478;2023-08-24T11:10:31;4.40;;;3.80;;
12852;SDS011;6495;51.808;7.478;2023-08-24T11:13:05;6.75;;;4.30;;
12852;SDS011;6495;51.808;7.478;2023-08-24T11:15:38;4.32;;;3.92;;
12852;SDS011;6495;51.808;7.478;2023-08-24T11:18:12;5.10;;;4.28;;
12852;SDS011;6495;51.808;7.478;2023-08-24T11:20:49;4.68;;;3.80;;
12852;SDS011;6495;51.808;7.478;2023-08-24T11:23:22;5.47;;;3.75;;
12852;SDS011;6495;51.808;7.478;2023-08-24T11:25:53;5.50;;;4.10;;
12852;SDS011;6495;51.808;7.478;2023-08-24T11:28:26;3.30;;;2.95;;
12852;SDS011;6495;51.808;7.478;2023-08-24T11:30:56;3.33;;;2.95;;
12852;SDS011;6495;51.808;7.478;2023-08-24T11:33:27;5.30;;;3.30;;
12852;SDS011;6495;51.808;7.478;2023-08-24T11:35:56;3.85;;;3.30;;
12852;SDS011;6495;51.808;7.478;2023-08-24T11:38:36;6.28;;;3.08;;
12852;SDS011;6495;51.808;7.478;2023-08-24T11:41:12;12.45;;;3.42;;
12852;SDS011;6495;51.808;7.478;2023-08-24T11:43:41;5.15;;;3.28;;
12852;SDS011;6495;51.808;7.478;2023-08-24T11:46:10;6.43;;;2.92;;
12852;SDS011;6495;51.808;7.478;2023-08-24T11:48:39;4.88;;;3.00;;
12852;SDS011;6495;51.808;7.478;2023-08-24T11:51:08;18.90;;;3.50;;
12852;SDS011;6495;51.808;7.478;2023-08-24T11:53:42;4.63;;;3.15;;
12852;SDS011;6495;51.808;7.478;2023-08-24T11:56:12;6.30;;;2.83;;
12852;SDS011;6495;51.808;7.478;2023-08-24T11:58:47;3.60;;;3.03;;
12852;SDS011;6495;51.808;7.478;2023-08-24T12:01:17;3.20;;;2.60;;
12852;SDS011;6495;51.808;7.478;2023-08-24T12:03:48;4.28;;;3.00;;
12852;SDS011;6495;51.808;7.478;2023-08-24T12:06:17;4.78;;;3.05;;
12852;SDS011;6495;51.808;7.478;2023-08-24T12:08:46;3.17;;;2.58;;
12852;SDS011;6495;51.808;7.478;2023-08-24T12:11:17;3.65;;;2.60;;
12852;SDS011;6495;51.808;7.478;2023-08-24T12:13:52;4.70;;;2.70;;
12852;SDS011;6495;51.808;7.478;2023-08-24T12:16:22;2.67;;;2.45;;
12852;SDS011;6495;51.808;7.478;2023-08-24T12:18:52;5.30;;;2.55;;
12852;SDS011;6495;51.808;7.478;2023-08-24T12:21:26;2.92;;;2.63;;
12852;SDS011;6495;51.808;7.478;2023-08-24T12:23:57;2.95;;;2.70;;
12852;SDS011;6495;51.808;7.478;2023-08-24T12:26:28;8.05;;;2.90;;
12852;SDS011;6495;51.808;7.478;2023-08-24T12:29:00;3.55;;;2.92;;
12852;SDS011;6495;51.808;7.478;2023-08-24T12:31:30;4.65;;;3.25;;
12852;SDS011;6495;51.808;7.478;2023-08-24T12:37:48;3.42;;;2.85;;
12852;SDS011;6495;51.808;7.478;2023-08-24T12:40:18;4.40;;;3.13;;
12852;SDS011;6495;51.808;7.478;2023-08-24T12:42:48;3.55;;;2.80;;
12852;SDS011;6495;51.808;7.478;2023-08-24T12:45:16;3.72;;;2.45;;
12852;SDS011;6495;51.808;7.478;2023-08-24T12:47:45;2.50;;;2.30;;
12852;SDS011;6495;51.808;7.478;2023-08-24T12:50:13;4.80;;;2.78;;
12852;SDS011;6495;51.808;7.478;2023-08-24T12:52:41;2.60;;;2.40;;
12852;SDS011;6495;51.808;7.478;2023-08-24T12:55:09;4.43;;;2.90;;
12852;SDS011;6495;51.808;7.478;2023-08-24T12:57:40;6.50;;;2.90;;
12852;SDS011;6495;51.808;7.478;2023-08-24T13:00:09;5.78;;;3.25;;
12852;SDS011;6495;51.808;7.478;2023-08-24T13:02:39;3.78;;;2.70;;
12852;SDS011;6495;51.808;7.478;2023-08-24T13:05:08;4.97;;;2.72;;
12852;SDS011;6495;51.808;7.478;2023-08-24T13:07:37;5.53;;;3.42;;
12852;SDS011;6495;51.808;7.478;2023-08-24T13:10:09;4.43;;;2.63;;
12852;SDS011;6495;51.808;7.478;2023-08-24T13:12:38;4.65;;;3.10;;
12852;SDS011;6495;51.808;7.478;2023-08-24T13:15:08;3.45;;;2.80;;
12852;SDS011;6495;51.808;7.478;2023-08-24T13:17:38;6.28;;;2.92;;
12852;SDS011;6495;51.808;7.478;2023-08-24T13:20:07;3.20;;;2.47;;
12852;SDS011;6495;51.808;7.478;2023-08-24T13:22:36;2.95;;;2.53;;
12852;SDS011;6495;51.808;7.478;2023-08-24T13:25:05;4.85;;;2.95;;
12852;SDS011;6495;51.808;7.478;2023-08-24T13:27:34;3.03;;;2.58;;
12852;SDS011;6495;51.808;7.478;2023-08-24T13:30:03;4.20;;;2.80;;
12852;SDS011;6495;51.808;7.478;2023-08-24T13:32:34;4.32;;;2.95;;
12852;SDS011;6495;51.808;7.478;2023-08-24T13:35:03;4.65;;;2.75;;
12852;SDS011;6495;51.808;7.478;2023-08-24T13:37:35;5.47;;;2.85;;
12852;SDS011;6495;51.808;7.478;2023-08-24T13:40:04;10.75;;;3.03;;
12852;SDS011;6495;51.808;7.478;2023-08-24T13:42:35;3.10;;;2.80;;
12852;SDS011;6495;51.808;7.478;2023-08-24T13:45:04;7.25;;;2.75;;
12852;SDS011;6495;51.808;7.478;2023-08-24T13:47:35;4.13;;;3.30;;
12852;SDS011;6495;51.808;7.478;2023-08-24T13:50:03;5.40;;;3.10;;
12852;SDS011;6495;51.808;7.478;2023-08-24T13:52:33;5.32;;;2.60;;
12852;SDS011;6495;51.808;7.478;2023-08-24T13:55:01;5.13;;;3.17;;
12852;SDS011;6495;51.808;7.478;2023-08-24T13:57:38;4.60;;;2.80;;
12852;SDS011;6495;51.808;7.478;2023-08-24T14:00:13;4.25;;;2.50;;
12852;SDS011;6495;51.808;7.478;2023-08-24T14:02:44;3.65;;;2.80;;
12852;SDS011;6495;51.808;7.478;2023-08-24T14:05:15;4.53;;;2.65;;
12852;SDS011;6495;51.808;7.478;2023-08-24T14:07:43;3.85;;;2.70;;
12852;SDS011;6495;51.808;7.478;2023-08-24T14:10:12;5.43;;;3.20;;
12852;SDS011;6495;51.808;7.478;2023-08-24T14:12:40;6.00;;;2.95;;
12852;SDS011;6495;51.808;7.478;2023-08-24T14:15:09;3.85;;;2.60;;
12852;SDS011;6495;51.808;7.478;2023-08-24T14:17:39;4.43;;;2.33;;
12852;SDS011;6495;51.808;7.478;2023-08-24T14:20:10;5.28;;;2.55;;
12852;SDS011;6495;51.808;7.478;2023-08-24T14:22:42;3.90;;;2.25;;
12852;SDS011;6495;51.808;7.478;2023-08-24T14:25:15;3.55;;;2.50;;
12852;SDS011;6495;51.808;7.478;2023-08-24T14:32:28;4.55;;;2.42;;
12852;SDS011;6495;51.808;7.478;2023-08-24T14:34:56;3.58;;;2.17;;
12852;SDS011;6495;51.808;7.478;2023-08-24T14:37:26;3.17;;;2.40;;
12852;SDS011;6495;51.808;7.478;2023-08-24T14:39:54;4.55;;;2.45;;
12852;SDS011;6495;51.808;7.478;2023-08-24T14:42:23;8.30;;;2.75;;
12852;SDS011;6495;51.808;7.478;2023-08-24T14:44:51;4.90;;;2.83;;
12852;SDS011;6495;51.808;7.478;2023-08-24T14:47:19;6.15;;;3.05;;
12852;SDS011;6495;51.808;7.478;2023-08-24T14:49:47;5.57;;;2.70;;
12852;SDS011;6495;51.808;7.478;2023-08-24T14:52:16;3.83;;;2.50;;
12852;SDS011;6495;51.808;7.478;2023-08-24T14:54:49;6.55;;;2.75;;
12852;SDS011;6495;51.808;7.478;2023-08-24T14:57:42;6.57;;;3.00;;
12852;SDS011;6495;51.808;7.478;2023-08-24T15:00:11;6.43;;;2.90;;
12852;SDS011;6495;51.808;7.478;2023-08-24T15:02:44;4.55;;;2.42;;
12852;SDS011;6495;51.808;7.478;2023-08-24T15:05:12;5.68;;;2.72;;
12852;SDS011;6495;51.808;7.478;2023-08-24T15:10:45;2.97;;;2.40;;
12852;SDS011;6495;51.808;7.478;2023-08-24T15:13:15;7.53;;;2.70;;
12852;SDS011;6495;51.808;7.478;2023-08-24T15:15:43;5.38;;;2.65;;
12852;SDS011;6495;51.808;7.478;2023-08-24T15:18:11;6.40;;;2.47;;
12852;SDS011;6495;51.808;7.478;2023-08-24T15:20:40;5.88;;;2.60;;
12852;SDS011;6495;51.808;7.478;2023-08-24T15:23:08;4.53;;;2.83;;
12852;SDS011;6495;51.808;7.478;2023-08-24T15:25:36;5.50;;;2.58;;